Time;durP1;ratioP1;P1;durP2;ratioP2;P2;SDS_P1;SDS_P2;PMS_P1;PMS_P2;Temp;Humidity;BMP_temperature;BMP_pressure;BME280_temperature;BME280_humidity;BME280_pressure;Samples;Min_cycle;Max_cycle;Signal;HPM_P1;HPM_P2
2023/03/11 00:01:39;;;;;;;3.17;0.97;;;-0.40;99.90;;;;;;5010460;28;20128;-72
2023/03/11 00:04:06;;;;;;;3.77;0.40;;;-0.40;99.90;;;;;;5006629;28;20091;-72
2023/03/11 00:06:34;;;;;;;5.75;0.40;;;-0.40;99.90;;;;;;4984094;28;20050;-72
2023/03/11 00:09:00;;;;;;;3.15;0.40;;;-0.50;99.90;;;;;;4987650;28;20045;-72
2023/03/11 00:11:26;;;;;;;2.37;0.30;;;-0.50;99.90;;;;;;5008035;28;20029;-72
2023/03/11 00:13:53;;;;;;;3.30;0.60;;;-0.50;99.90;;;;;;5006311;28;20054;-72
2023/03/11 00:16:18;;;;;;;5.50;0.70;;;-0.50;99.90;;;;;;4986844;28;20135;-72
2023/03/11 00:18:44;;;;;;;3.70;0.33;;;-0.50;99.90;;;;;;5016280;28;20037;-72
2023/03/11 00:21:16;;;;;;;4.67;0.30;;;-0.50;99.90;;;;;;4994102;28;20179;-72
2023/03/11 00:23:42;;;;;;;4.75;0.40;;;-0.50;99.90;;;;;;5011229;28;20045;-72
2023/03/11 00:26:07;;;;;;;3.87;0.60;;;-0.50;99.90;;;;;;5007155;28;20042;-72
2023/03/11 00:28:33;;;;;;;4.50;0.40;;;-0.50;99.90;;;;;;4988876;28;20485;-72
2023/03/11 00:30:59;;;;;;;1.70;0.30;;;-0.50;99.90;;;;;;5002715;28;20041;-72
2023/03/11 00:33:25;;;;;;;4.13;0.50;;;-0.60;99.90;;;;;;5009676;28;20629;-72
2023/03/11 00:35:50;;;;;;;2.17;0.50;;;-0.60;99.90;;;;;;4992299;28;20076;-72
2023/03/11 00:38:17;;;;;;;4.27;0.80;;;-0.60;99.90;;;;;;5009569;28;20424;-72
2023/03/11 00:40:45;;;;;;;2.17;0.45;;;-0.70;99.90;;;;;;4986307;28;20049;-72
2023/03/11 00:43:11;;;;;;;1.85;0.30;;;-0.70;99.90;;;;;;5009369;28;20050;-72
2023/03/11 00:45:37;;;;;;;4.13;0.40;;;-0.80;99.90;;;;;;5006661;28;20037;-72
2023/03/11 00:48:04;;;;;;;4.15;0.50;;;-0.90;99.90;;;;;;5004344;28;20042;-72
2023/03/11 00:50:32;;;;;;;2.90;0.32;;;-0.90;99.90;;;;;;4990591;28;20041;-72
2023/03/11 00:52:59;;;;;;;2.22;0.30;;;-0.90;99.90;;;;;;4993627;28;20915;-72
2023/03/11 00:55:28;;;;;;;3.33;0.30;;;-1.00;99.90;;;;;;5010089;28;20480;-72
2023/03/11 00:58:00;;;;;;;2.25;0.35;;;-1.00;99.90;;;;;;5000843;28;20069;-72
2023/03/11 01:00:28;;;;;;;1.15;0.35;;;-1.00;99.90;;;;;;5000089;28;20041;-72
2023/03/11 01:02:55;;;;;;;2.38;0.30;;;-1.10;99.90;;;;;;4988531;28;20030;-72
2023/03/11 01:05:25;;;;;;;4.25;0.25;;;-1.10;99.90;;;;;;5001167;28;20049;-72
2023/03/11 01:07:50;;;;;;;2.25;0.30;;;-1.10;99.90;;;;;;5003470;28;20060;-72
2023/03/11 01:10:17;;;;;;;2.63;0.37;;;-1.10;99.90;;;;;;4986050;28;20492;-72
2023/03/11 01:12:43;;;;;;;2.00;0.30;;;-1.10;99.90;;;;;;4981983;28;20053;-72
2023/03/11 01:15:15;;;;;;;3.73;0.43;;;-1.00;99.90;;;;;;5007990;28;20045;-72
2023/03/11 01:17:41;;;;;;;2.45;0.30;;;-1.00;99.90;;;;;;5001344;28;20060;-72
2023/03/11 01:20:09;;;;;;;3.83;0.50;;;-1.00;99.90;;;;;;5004572;28;20573;-72
2023/03/11 01:22:38;;;;;;;6.10;0.30;;;-1.00;99.90;;;;;;5003215;28;20293;-72
2023/03/11 01:25:04;;;;;;;2.28;0.40;;;-0.90;99.90;;;;;;4971375;28;20036;-72
2023/03/11 01:27:29;;;;;;;3.05;0.40;;;-0.90;99.90;;;;;;5005521;28;20070;-72
2023/03/11 01:29:55;;;;;;;5.73;0.60;;;-0.90;99.90;;;;;;5005297;28;20077;-72
2023/03/11 01:32:23;;;;;;;3.03;0.60;;;-0.80;99.90;;;;;;4971107;28;20687;-72
2023/03/11 01:34:49;;;;;;;4.75;0.90;;;-0.80;99.90;;;;;;4990027;28;20124;-72
2023/03/11 01:37:14;;;;;;;3.30;0.80;;;-0.80;99.90;;;;;;5011349;28;20144;-72
2023/03/11 01:39:40;;;;;;;2.03;0.50;;;-0.70;99.90;;;;;;4999040;28;20490;-72
2023/03/11 01:42:06;;;;;;;6.93;0.83;;;-0.80;99.90;;;;;;4992736;28;20030;-72
2023/03/11 01:44:31;;;;;;;5.33;0.90;;;-0.70;99.90;;;;;;5008696;28;20041;-72
2023/03/11 01:47:01;;;;;;;4.20;0.53;;;-0.70;99.90;;;;;;5003615;28;20284;-72
2023/03/11 01:49:27;;;;;;;6.03;0.63;;;-0.60;99.90;;;;;;4998682;28;20069;-72
2023/03/11 01:52:02;;;;;;;4.22;0.38;;;-0.60;99.90;;;;;;4988820;28;20033;-72
2023/03/11 01:54:31;;;;;;;1.70;0.40;;;-0.70;99.90;;;;;;4998991;28;20087;-72
2023/03/11 01:56:58;;;;;;;2.75;0.38;;;-0.80;99.90;;;;;;4987830;28;20045;-72
2023/03/11 01:59:29;;;;;;;8.15;1.13;;;-0.90;99.90;;;;;;5002298;28;20080;-72
2023/03/11 02:01:58;;;;;;;4.20;0.47;;;-1.00;99.90;;;;;;4995141;28;20077;-72
2023/03/11 02:04:24;;;;;;;4.35;0.35;;;-1.20;99.90;;;;;;4994509;28;20048;-73
2023/03/11 02:06:51;;;;;;;5.72;0.70;;;-1.20;99.90;;;;;;4999142;28;20041;-72
2023/03/11 02:09:17;;;;;;;5.35;0.90;;;-1.30;99.90;;;;;;4995867;28;20137;-73
2023/03/11 02:11:43;;;;;;;5.10;1.00;;;-1.30;99.90;;;;;;5000588;28;20152;-73
2023/03/11 02:14:09;;;;;;;6.07;0.50;;;-1.40;99.90;;;;;;4995291;28;20045;-72
2023/03/11 02:16:35;;;;;;;3.90;0.30;;;-1.50;99.90;;;;;;4999504;28;20129;-73
2023/03/11 02:19:30;;;;;;;2.65;0.30;;;-1.60;99.90;;;;;;4983354;28;20367;-73
2023/03/11 02:21:56;;;;;;;2.92;0.30;;;-1.60;99.90;;;;;;4990728;28;20053;-72
2023/03/11 02:24:49;;;;;;;3.88;0.40;;;-1.70;99.90;;;;;;4990332;28;20120;-72
2023/03/11 02:27:18;;;;;;;1.80;0.25;;;-1.80;99.90;;;;;;4993280;28;20763;-72
2023/03/11 02:29:48;;;;;;;1.70;0.30;;;-1.90;99.90;;;;;;4997416;28;20037;-73
2023/03/11 02:32:14;;;;;;;3.58;0.40;;;-1.90;99.90;;;;;;4988060;28;20035;-73
2023/03/11 02:34:40;;;;;;;3.63;0.60;;;-2.00;99.90;;;;;;4988714;28;20129;-72
2023/03/11 02:37:12;;;;;;;2.78;0.50;;;-2.10;99.90;;;;;;4991994;28;20067;-73
2023/03/11 02:39:40;;;;;;;6.80;0.82;;;-2.10;99.90;;;;;;5004196;28;20053;-72
2023/03/11 02:42:11;;;;;;;4.80;1.00;;;-2.20;99.90;;;;;;4998837;28;20053;-73
2023/03/11 02:44:40;;;;;;;4.57;0.32;;;-2.20;99.90;;;;;;4990249;28;20610;-73
2023/03/11 02:47:06;;;;;;;5.22;0.50;;;-2.20;99.90;;;;;;4992246;28;20502;-72
2023/03/11 02:49:32;;;;;;;3.93;0.30;;;-2.30;99.90;;;;;;5001607;28;20101;-72
2023/03/11 02:51:58;;;;;;;3.30;0.60;;;-2.30;99.90;;;;;;5003377;28;20048;-73
2023/03/11 02:54:23;;;;;;;2.37;0.30;;;-2.30;99.90;;;;;;4981546;28;20041;-72
2023/03/11 02:56:49;;;;;;;3.90;0.40;;;-2.30;99.90;;;;;;4987154;28;20498;-73
2023/03/11 02:59:15;;;;;;;6.07;0.67;;;-2.30;99.90;;;;;;4985661;28;20053;-73
2023/03/11 03:01:40;;;;;;;7.70;0.50;;;-2.30;99.90;;;;;;4990199;28;20053;-73
2023/03/11 03:04:06;;;;;;;6.07;0.30;;;-2.40;99.90;;;;;;5006971;28;20049;-73
2023/03/11 03:06:32;;;;;;;2.73;0.30;;;-2.40;99.90;;;;;;4989593;28;20048;-73
2023/03/11 03:08:57;;;;;;;6.13;1.37;;;-2.40;99.90;;;;;;5007511;28;20451;-73
2023/03/11 03:11:23;;;;;;;6.00;0.50;;;-2.50;99.90;;;;;;4991434;28;20131;-73
2023/03/11 03:13:49;;;;;;;3.00;0.37;;;-2.50;99.90;;;;;;4982671;28;20478;-73
2023/03/11 03:16:14;;;;;;;2.20;0.47;;;-2.50;99.90;;;;;;4979675;28;20060;-73
2023/03/11 03:18:40;;;;;;;4.27;0.40;;;-2.50;99.90;;;;;;4978387;28;20050;-73
2023/03/11 03:21:06;;;;;;;4.07;0.40;;;-2.60;99.90;;;;;;5008575;28;20049;-73
2023/03/11 03:23:34;;;;;;;3.07;0.33;;;-2.70;99.90;;;;;;4991135;28;20042;-73
2023/03/11 03:26:01;;;;;;;4.32;0.40;;;-2.60;99.90;;;;;;5007820;28;20046;-73
2023/03/11 03:28:27;;;;;;;2.58;0.40;;;-2.70;99.90;;;;;;4979503;28;20044;-73
2023/03/11 03:30:52;;;;;;;2.47;0.40;;;-2.60;99.90;;;;;;4990701;28;20038;-73
2023/03/11 03:33:18;;;;;;;2.97;0.40;;;-2.60;99.90;;;;;;4990146;28;20556;-73
2023/03/11 03:35:44;;;;;;;4.70;0.20;;;-2.60;99.90;;;;;;5025951;28;20045;-73
2023/03/11 03:38:11;;;;;;;2.53;0.20;;;-2.70;99.90;;;;;;5006052;28;20456;-73
2023/03/11 03:40:37;;;;;;;2.47;0.60;;;-2.70;99.90;;;;;;5002500;28;20486;-73
2023/03/11 03:43:03;;;;;;;2.55;0.30;;;-2.80;99.90;;;;;;5007785;28;20042;-73
2023/03/11 03:45:29;;;;;;;2.50;0.25;;;-2.90;99.90;;;;;;4978321;28;20037;-73
2023/03/11 03:47:55;;;;;;;6.68;0.50;;;-3.00;99.90;;;;;;5001086;28;20441;-73
2023/03/11 03:50:21;;;;;;;3.93;0.73;;;-3.10;99.90;;;;;;4971400;28;20121;-73
2023/03/11 03:52:47;;;;;;;5.70;0.60;;;-3.20;99.90;;;;;;4974238;28;20041;-73
2023/03/11 03:55:12;;;;;;;3.70;0.40;;;-3.30;99.90;;;;;;5021797;28;20092;-73
2023/03/11 03:57:38;;;;;;;2.03;0.30;;;-3.40;99.90;;;;;;4974034;28;20281;-73
2023/03/11 04:00:07;;;;;;;2.53;0.40;;;-3.50;99.90;;;;;;5022933;28;20096;-73
2023/03/11 04:02:33;;;;;;;4.18;0.40;;;-3.50;99.90;;;;;;4997486;28;20165;-73
2023/03/11 04:04:59;;;;;;;1.87;0.40;;;-3.30;99.90;;;;;;4990619;28;20080;-73
2023/03/11 04:07:25;;;;;;;4.27;0.50;;;-3.10;99.90;;;;;;4989813;28;20041;-73
2023/03/11 04:09:51;;;;;;;3.20;0.30;;;-3.20;99.90;;;;;;4988202;28;20289;-73
2023/03/11 04:12:16;;;;;;;1.00;0.40;;;-3.30;99.90;;;;;;4994291;28;20403;-73
2023/03/11 04:14:43;;;;;;;2.57;0.40;;;-3.40;99.90;;;;;;4980150;28;20049;-73
2023/03/11 04:17:12;;;;;;;5.20;0.40;;;-3.50;99.90;;;;;;4986284;28;20120;-73
2023/03/11 04:19:39;;;;;;;6.15;0.40;;;-3.60;99.90;;;;;;5000714;28;20061;-73
2023/03/11 04:22:05;;;;;;;4.47;0.40;;;-3.70;99.90;;;;;;4988313;28;20038;-75
2023/03/11 04:24:31;;;;;;;2.83;0.30;;;-3.80;99.90;;;;;;4992677;28;20060;-75
2023/03/11 04:26:56;;;;;;;5.23;1.47;;;-3.90;99.90;;;;;;4987409;28;20489;-75
2023/03/11 04:29:22;;;;;;;6.67;0.30;;;-3.90;99.90;;;;;;4982095;28;20672;-75
2023/03/11 04:31:48;;;;;;;3.27;0.30;;;-4.00;99.90;;;;;;5017233;28;20079;-75
2023/03/11 04:34:14;;;;;;;6.57;0.40;;;-4.10;99.90;;;;;;5007109;28;20037;-75
2023/03/11 04:36:40;;;;;;;3.10;0.50;;;-4.20;99.90;;;;;;5006604;28;20049;-75
2023/03/11 04:39:06;;;;;;;3.73;0.37;;;-4.20;99.90;;;;;;4980969;28;20055;-75
2023/03/11 04:41:31;;;;;;;4.25;0.60;;;-4.30;99.90;;;;;;4993709;28;20059;-75
2023/03/11 04:43:58;;;;;;;2.57;0.30;;;-4.30;99.90;;;;;;4965826;28;20042;-75
2023/03/11 04:46:24;;;;;;;4.30;0.40;;;-4.40;99.90;;;;;;4996923;28;20596;-75
2023/03/11 04:48:50;;;;;;;3.50;0.60;;;-4.40;99.90;;;;;;4997819;28;20060;-75
2023/03/11 04:51:15;;;;;;;5.03;0.80;;;-4.40;99.90;;;;;;4983373;28;20037;-75
2023/03/11 04:53:41;;;;;;;3.13;0.80;;;-4.40;99.90;;;;;;4979904;28;20084;-75
2023/03/11 04:56:07;;;;;;;2.97;0.50;;;-4.40;99.90;;;;;;4967053;28;20049;-75
2023/03/11 04:58:33;;;;;;;3.57;0.50;;;-4.50;99.90;;;;;;4992034;28;20573;-75
2023/03/11 05:00:58;;;;;;;2.87;0.53;;;-4.50;99.90;;;;;;4992453;28;20054;-75
2023/03/11 05:03:24;;;;;;;4.73;0.60;;;-4.50;99.90;;;;;;5001228;28;20040;-75
2023/03/11 05:05:55;;;;;;;3.23;0.50;;;-4.60;99.90;;;;;;4993612;28;20081;-75
2023/03/11 05:08:22;;;;;;;5.85;0.40;;;-4.60;99.90;;;;;;4996617;28;20128;-75
2023/03/11 05:10:47;;;;;;;4.07;0.50;;;-4.60;99.90;;;;;;4992383;28;20077;-75
2023/03/11 05:13:13;;;;;;;10.33;1.17;;;-4.60;99.90;;;;;;4988202;28;20103;-75
2023/03/11 05:15:39;;;;;;;4.23;1.07;;;-4.70;99.90;;;;;;5002098;28;20048;-74
2023/03/11 05:18:04;;;;;;;6.93;1.03;;;-4.70;99.90;;;;;;4992426;28;20129;-75
2023/03/11 05:20:31;;;;;;;6.63;0.53;;;-4.70;99.90;;;;;;4996230;28;20060;-75
2023/03/11 05:22:57;;;;;;;4.15;0.65;;;-4.70;99.90;;;;;;5000768;28;20087;-74
2023/03/11 05:25:23;;;;;;;6.47;0.52;;;-4.80;99.90;;;;;;5004648;28;20045;-75
2023/03/11 05:27:49;;;;;;;4.90;0.52;;;-4.80;99.90;;;;;;4983013;28;20140;-74
2023/03/11 05:30:15;;;;;;;3.03;0.43;;;-4.80;99.90;;;;;;4975001;28;20820;-74
2023/03/11 05:32:41;;;;;;;3.60;0.32;;;-4.90;99.90;;;;;;4977840;28;20064;-74
2023/03/11 05:35:07;;;;;;;3.47;0.40;;;-4.90;99.90;;;;;;4998882;28;20489;-74
2023/03/11 05:37:34;;;;;;;3.97;0.40;;;-4.90;99.90;;;;;;5011487;28;20068;-74
2023/03/11 05:39:59;;;;;;;3.75;0.43;;;-4.90;99.90;;;;;;5004420;28;20106;-74
2023/03/11 05:42:25;;;;;;;5.20;0.40;;;-4.90;99.90;;;;;;5012956;28;20041;-74
2023/03/11 05:44:51;;;;;;;3.33;0.80;;;-5.00;99.90;;;;;;5008914;28;20038;-74
2023/03/11 05:47:18;;;;;;;1.53;0.33;;;-5.00;99.90;;;;;;4979088;28;20077;-74
2023/03/11 05:49:46;;;;;;;2.95;0.35;;;-5.00;99.90;;;;;;4997681;28;20490;-74
2023/03/11 05:52:12;;;;;;;2.95;0.40;;;-5.00;99.90;;;;;;4999331;28;20128;-74
2023/03/11 05:54:38;;;;;;;4.40;0.50;;;-5.10;99.90;;;;;;5008451;28;20542;-74
2023/03/11 05:57:03;;;;;;;4.57;0.50;;;-5.10;99.90;;;;;;5004657;28;20040;-74
2023/03/11 05:59:31;;;;;;;3.20;0.33;;;-5.10;99.90;;;;;;5015529;28;20049;-74
2023/03/11 06:01:57;;;;;;;2.60;0.40;;;-5.20;99.90;;;;;;5004588;28;20590;-74
2023/03/11 06:04:23;;;;;;;4.15;0.40;;;-5.20;99.90;;;;;;4991481;28;20107;-74
2023/03/11 06:06:49;;;;;;;3.50;0.43;;;-5.20;99.90;;;;;;4997128;28;20045;-74
2023/03/11 06:09:15;;;;;;;10.07;0.83;;;-5.20;99.90;;;;;;4991264;28;20053;-74
2023/03/11 06:11:41;;;;;;;2.10;0.40;;;-5.20;99.90;;;;;;4992677;28;20090;-74
2023/03/11 06:14:11;;;;;;;4.17;0.40;;;-5.20;99.90;;;;;;4980944;28;20041;-74
2023/03/11 06:16:37;;;;;;;4.20;0.40;;;-5.20;99.90;;;;;;4983710;28;20293;-74
2023/03/11 06:19:03;;;;;;;1.87;0.50;;;-5.20;99.90;;;;;;5009457;28;20383;-74
2023/03/11 06:21:28;;;;;;;3.83;0.50;;;-5.20;99.90;;;;;;5008105;28;20041;-74
2023/03/11 06:23:54;;;;;;;5.93;0.53;;;-5.10;99.90;;;;;;4999902;28;20417;-74
2023/03/11 06:26:21;;;;;;;2.37;0.73;;;-5.10;99.90;;;;;;4994300;28;20033;-74
2023/03/11 06:28:47;;;;;;;5.35;0.68;;;-5.10;99.90;;;;;;4975452;28;20537;-74
2023/03/11 06:31:25;;;;;;;2.35;0.70;;;-5.00;99.90;;;;;;4991798;28;20056;-74
2023/03/11 06:33:52;;;;;;;5.60;0.50;;;-5.00;99.90;;;;;;4991239;28;20180;-74
2023/03/11 06:36:19;;;;;;;5.70;0.75;;;-4.90;99.90;;;;;;5024798;28;20045;-74
2023/03/11 06:38:45;;;;;;;3.78;0.65;;;-4.90;99.90;;;;;;5003586;28;20807;-74
2023/03/11 06:41:11;;;;;;;4.05;1.05;;;-4.90;99.90;;;;;;4996440;28;20240;-74
2023/03/11 06:43:37;;;;;;;4.63;0.77;;;-4.80;99.90;;;;;;4984453;28;20042;-74
2023/03/11 06:46:16;;;;;;;4.60;0.85;;;-4.70;99.90;;;;;;4999609;28;20055;-74
2023/03/11 06:48:42;;;;;;;4.72;0.75;;;-4.70;99.90;;;;;;5003120;28;20041;-74
2023/03/11 06:51:09;;;;;;;3.78;0.60;;;-4.60;99.90;;;;;;5026699;28;20045;-74
2023/03/11 06:53:34;;;;;;;2.70;0.65;;;-4.50;99.90;;;;;;4995243;28;20044;-74
2023/03/11 06:56:06;;;;;;;5.50;1.20;;;-4.50;99.90;;;;;;4993873;28;20049;-74
2023/03/11 06:58:34;;;;;;;7.22;0.90;;;-4.40;99.90;;;;;;4999616;28;20068;-74
2023/03/11 07:01:05;;;;;;;4.93;0.70;;;-4.30;99.90;;;;;;4993969;28;20080;-74
2023/03/11 07:03:31;;;;;;;2.70;0.60;;;-4.20;99.90;;;;;;5001407;28;20116;-74
2023/03/11 07:05:57;;;;;;;3.83;0.50;;;-4.10;99.90;;;;;;4967027;28;20438;-73
2023/03/11 07:08:24;;;;;;;6.40;0.70;;;-4.10;99.90;;;;;;5004333;28;20495;-74
2023/03/11 07:11:07;;;;;;;3.90;0.60;;;-3.90;99.90;;;;;;5004906;28;20113;-74
2023/03/11 07:13:34;;;;;;;2.30;0.70;;;-3.80;99.90;;;;;;5018903;28;20048;-74
2023/03/11 07:16:08;;;;;;;6.35;0.45;;;-3.80;99.90;;;;;;4985828;28;20686;-74
2023/03/11 07:18:35;;;;;;;6.03;0.70;;;-3.60;99.90;;;;;;4982400;28;20089;-74
2023/03/11 07:21:02;;;;;;;8.15;0.90;;;-3.50;99.90;;;;;;4982849;28;20053;-74
2023/03/11 07:23:28;;;;;;;6.47;0.70;;;-3.40;99.90;;;;;;5005780;28;20045;-74
2023/03/11 07:25:54;;;;;;;4.70;0.60;;;-3.30;99.90;;;;;;4976662;28;20145;-74
2023/03/11 07:28:21;;;;;;;11.65;1.45;;;-3.20;99.90;;;;;;5011375;28;20041;-75
2023/03/11 07:30:47;;;;;;;4.28;0.98;;;-3.00;99.90;;;;;;5002849;28;20041;-74
2023/03/11 07:33:13;;;;;;;6.20;0.90;;;-2.90;99.90;;;;;;4990295;28;20156;-74
2023/03/11 07:35:39;;;;;;;4.50;0.88;;;-2.80;99.90;;;;;;4993025;28;20049;-74
2023/03/11 07:38:05;;;;;;;4.70;1.43;;;-2.70;99.90;;;;;;5005262;28;20046;-74
2023/03/11 07:40:31;;;;;;;5.77;0.80;;;-2.50;99.90;;;;;;4991480;28;20498;-74
2023/03/11 07:42:56;;;;;;;5.07;0.90;;;-2.40;99.90;;;;;;4997163;28;20084;-74
2023/03/11 07:45:22;;;;;;;3.07;0.70;;;-2.30;99.90;;;;;;4996814;28;20034;-75
2023/03/11 07:47:48;;;;;;;4.03;0.90;;;-2.20;99.90;;;;;;5006777;28;20279;-75
2023/03/11 07:50:16;;;;;;;5.17;0.60;;;-2.00;99.90;;;;;;4988215;28;20391;-75
2023/03/11 07:52:42;;;;;;;4.65;1.10;;;-1.90;99.90;;;;;;4987005;28;20103;-75
2023/03/11 07:55:08;;;;;;;3.78;0.80;;;-1.80;99.90;;;;;;5006977;28;20046;-74
2023/03/11 07:57:34;;;;;;;6.43;1.05;;;-1.70;99.90;;;;;;5002588;28;20076;-74
2023/03/11 08:00:00;;;;;;;3.70;0.80;;;-1.60;99.90;;;;;;4991813;28;20821;-74
2023/03/11 08:02:26;;;;;;;5.15;0.80;;;-1.50;99.90;;;;;;4985337;28;20069;-74
2023/03/11 08:04:52;;;;;;;9.35;1.08;;;-1.40;99.90;;;;;;4979359;28;20042;-75
2023/03/11 08:07:19;;;;;;;2.73;0.63;;;-1.20;99.90;;;;;;4988763;28;20034;-75
2023/03/11 08:09:45;;;;;;;4.45;0.98;;;-1.10;99.90;;;;;;5010844;28;20033;-75
2023/03/11 08:12:11;;;;;;;5.57;0.80;;;-1.10;99.90;;;;;;5002948;28;20049;-75
2023/03/11 08:14:38;;;;;;;4.47;1.03;;;-1.00;99.90;;;;;;5028018;28;20128;-75
2023/03/11 08:17:04;;;;;;;4.60;0.88;;;-0.90;99.90;;;;;;4985317;28;20432;-77
2023/03/11 08:19:30;;;;;;;8.30;1.05;;;-0.80;99.90;;;;;;5006267;28;20088;-76
2023/03/11 08:21:56;;;;;;;4.13;0.80;;;-0.70;99.90;;;;;;4961603;28;20050;-76
2023/03/11 08:24:22;;;;;;;3.50;0.70;;;-0.70;99.90;;;;;;5015165;28;20046;-76
2023/03/11 08:26:48;;;;;;;4.77;0.83;;;-0.60;99.90;;;;;;4990365;28;20042;-75
2023/03/11 08:29:13;;;;;;;2.90;0.60;;;-0.50;99.90;;;;;;4999659;28;20037;-76
2023/03/11 08:31:39;;;;;;;6.53;0.80;;;-0.40;99.90;;;;;;5025330;28;20103;-76
2023/03/11 08:34:08;;;;;;;5.65;0.95;;;-0.30;99.90;;;;;;5007400;28;20379;-77
2023/03/11 08:36:34;;;;;;;3.17;0.80;;;-0.20;99.90;;;;;;5008481;28;20437;-76
2023/03/11 08:39:00;;;;;;;4.43;1.35;;;-0.10;99.90;;;;;;4992536;28;20306;-77
2023/03/11 08:41:26;;;;;;;7.45;0.80;;;0.00;99.90;;;;;;4985971;28;20069;-76
2023/03/11 08:43:52;;;;;;;6.32;0.73;;;0.10;99.90;;;;;;4999496;28;20029;-76
2023/03/11 08:46:25;;;;;;;4.43;0.90;;;0.30;99.90;;;;;;4993860;28;20120;-77
2023/03/11 08:48:52;;;;;;;4.00;0.88;;;0.40;99.90;;;;;;5005537;28;20100;-76
2023/03/11 08:51:18;;;;;;;5.32;0.80;;;0.50;99.90;;;;;;5008863;28;20033;-76
2023/03/11 08:53:44;;;;;;;6.38;0.68;;;0.60;99.90;;;;;;4991396;28;20061;-76
2023/03/11 08:56:09;;;;;;;5.40;0.93;;;0.70;99.90;;;;;;4978465;28;20033;-76
2023/03/11 08:58:35;;;;;;;6.23;0.97;;;0.80;99.90;;;;;;4986302;28;20050;-77
2023/03/11 09:01:01;;;;;;;4.70;0.70;;;0.90;99.90;;;;;;4998891;28;20452;-75
2023/03/11 09:03:30;;;;;;;10.17;0.90;;;1.00;99.90;;;;;;4993285;28;20049;-75
2023/03/11 09:05:58;;;;;;;4.25;0.50;;;1.10;99.90;;;;;;5003095;28;20114;-75
2023/03/11 09:08:24;;;;;;;5.60;1.00;;;1.20;99.90;;;;;;4991848;28;20180;-75
2023/03/11 09:10:49;;;;;;;35.70;2.23;;;1.30;99.90;;;;;;5009819;28;20117;-75
2023/03/11 09:13:15;;;;;;;9.03;1.43;;;1.40;99.90;;;;;;5002191;28;20540;-74
2023/03/11 09:15:41;;;;;;;6.57;0.60;;;1.50;99.90;;;;;;4960464;28;20042;-74
2023/03/11 09:18:10;;;;;;;5.67;1.10;;;1.50;99.90;;;;;;4998157;28;20748;-74
2023/03/11 09:20:38;;;;;;;4.13;0.55;;;1.60;99.90;;;;;;4988968;28;20094;-75
2023/03/11 09:23:04;;;;;;;7.13;1.10;;;1.70;99.90;;;;;;4996743;28;20042;-75
2023/03/11 09:25:30;;;;;;;5.70;1.85;;;1.80;99.90;;;;;;4967337;28;20556;-75
2023/03/11 09:27:55;;;;;;;5.03;0.70;;;1.90;99.90;;;;;;4984648;28;20123;-75
2023/03/11 09:30:21;;;;;;;4.50;0.63;;;1.90;99.90;;;;;;4992523;28;20259;-76
2023/03/11 09:32:47;;;;;;;2.70;0.97;;;2.00;99.90;;;;;;4947989;28;20128;-75
2023/03/11 09:35:12;;;;;;;7.10;1.10;;;2.00;99.90;;;;;;4982938;28;20045;-75
2023/03/11 09:37:38;;;;;;;4.93;0.70;;;2.10;99.90;;;;;;4997592;28;20037;-75
2023/03/11 09:40:04;;;;;;;7.00;0.60;;;2.10;99.90;;;;;;4999321;28;20041;-75
2023/03/11 09:42:40;;;;;;;5.97;0.93;;;2.20;99.90;;;;;;5003120;28;20045;-75
2023/03/11 09:45:19;;;;;;;1.90;0.53;;;2.30;99.90;;;;;;4994894;28;20049;-75
2023/03/11 09:47:57;;;;;;;6.10;1.08;;;2.40;99.90;;;;;;4987502;28;20291;-76
2023/03/11 09:50:30;;;;;;;4.28;0.95;;;2.60;99.90;;;;;;4982441;28;20513;-76
2023/03/11 09:53:09;;;;;;;5.57;1.27;;;2.70;99.90;;;;;;5009325;28;20048;-76
2023/03/11 09:55:47;;;;;;;5.63;1.08;;;2.80;99.90;;;;;;5000649;28;20041;-76
2023/03/11 09:58:28;;;;;;;5.63;1.13;;;2.90;99.90;;;;;;4999286;28;20093;-76
2023/03/11 10:00:54;;;;;;;3.97;0.93;;;3.00;99.90;;;;;;5000958;28;20047;-76
2023/03/11 10:03:31;;;;;;;4.93;1.30;;;3.10;99.90;;;;;;4972624;28;20479;-77
2023/03/11 10:06:12;;;;;;;4.47;1.10;;;3.10;99.90;;;;;;4995915;28;20046;-77
2023/03/11 10:08:46;;;;;;;5.53;1.42;;;3.20;99.90;;;;;;4995610;28;20034;-77
2023/03/11 10:11:39;;;;;;;2.85;1.42;;;3.30;99.90;;;;;;5004840;28;20041;-76
2023/03/11 10:14:29;;;;;;;7.82;1.38;;;3.40;99.90;;;;;;4997048;28;20198;-76
2023/03/11 10:17:19;;;;;;;6.32;1.00;;;3.40;99.90;;;;;;4999284;28;20100;-77
2023/03/11 10:20:15;;;;;;;5.53;1.00;;;3.50;99.90;;;;;;4990400;28;20049;-77
2023/03/11 10:22:53;;;;;;;6.63;1.17;;;3.60;99.90;;;;;;5007647;28;20271;-77
2023/03/11 10:25:29;;;;;;;4.88;1.00;;;3.70;99.90;;;;;;5010761;28;20409;-77
2023/03/11 10:28:11;;;;;;;5.50;0.82;;;3.90;99.90;;;;;;4992086;28;20053;-77
2023/03/11 10:30:51;;;;;;;5.32;1.00;;;4.00;99.90;;;;;;4983492;28;20033;-77
2023/03/11 10:33:29;;;;;;;7.45;1.25;;;4.00;99.90;;;;;;4988494;28;20045;-76
2023/03/11 10:35:59;;;;;;;4.35;0.70;;;4.10;99.90;;;;;;4982440;28;20063;-77
2023/03/11 10:38:41;;;;;;;7.43;1.33;;;4.10;99.90;;;;;;5000778;28;20108;-77
2023/03/11 10:41:27;;;;;;;3.75;0.57;;;4.00;99.90;;;;;;4987761;28;20609;-73
2023/03/11 10:44:08;;;;;;;5.32;0.60;;;4.10;99.90;;;;;;5009647;28;20609;-77
2023/03/11 10:46:34;;;;;;;6.32;0.80;;;4.10;99.90;;;;;;5008633;28;20038;-77
2023/03/11 10:49:00;;;;;;;2.67;0.70;;;4.20;99.90;;;;;;4995044;28;20044;-77
2023/03/11 10:51:34;;;;;;;4.80;0.50;;;4.30;99.90;;;;;;4965355;28;20037;-77
2023/03/11 10:54:02;;;;;;;8.85;0.73;;;4.50;99.90;;;;;;5009648;28;20042;-76
2023/03/11 10:56:28;;;;;;;4.97;0.68;;;4.60;99.90;;;;;;5002751;28;20065;-76
2023/03/11 10:58:55;;;;;;;6.77;0.63;;;4.50;99.90;;;;;;4986436;28;20096;-77
2023/03/11 11:01:21;;;;;;;5.15;0.60;;;4.50;99.90;;;;;;5001095;28;20033;-77
2023/03/11 11:03:49;;;;;;;5.63;1.40;;;4.30;99.90;;;;;;5008880;28;20068;-76
2023/03/11 11:06:24;;;;;;;5.88;0.68;;;4.40;99.90;;;;;;5004411;28;20100;-76
2023/03/11 11:09:15;;;;;;;5.22;0.70;;;4.40;99.90;;;;;;5003322;28;20125;-76
2023/03/11 11:11:58;;;;;;;2.75;0.65;;;4.50;99.90;;;;;;5004161;28;20244;-75
2023/03/11 11:14:24;;;;;;;1.92;0.43;;;4.50;99.90;;;;;;4988519;28;20045;-76
2023/03/11 11:16:51;;;;;;;3.17;0.60;;;4.50;99.90;;;;;;5006642;28;20045;-76
2023/03/11 11:19:18;;;;;;;5.15;0.80;;;4.50;99.90;;;;;;4988336;28;20053;-76
2023/03/11 11:21:51;;;;;;;2.45;0.80;;;4.60;99.90;;;;;;5000722;28;20073;-75
2023/03/11 11:24:42;;;;;;;5.95;0.63;;;4.60;99.90;;;;;;4986236;28;20046;-76
2023/03/11 11:27:20;;;;;;;5.35;0.60;;;4.70;99.90;;;;;;5004065;28;20041;-76
2023/03/11 11:29:47;;;;;;;3.50;0.52;;;4.60;99.90;;;;;;5009847;28;20481;-75
2023/03/11 11:32:26;;;;;;;3.50;0.68;;;4.60;99.90;;;;;;5024192;28;20053;-76
2023/03/11 11:35:01;;;;;;;4.07;0.50;;;4.80;99.90;;;;;;4985818;28;20061;-75
2023/03/11 11:37:30;;;;;;;6.57;0.63;;;4.80;99.90;;;;;;5003511;28;20061;-75
2023/03/11 11:40:10;;;;;;;1.65;0.40;;;4.70;99.90;;;;;;4995947;28;20042;-74
2023/03/11 11:42:38;;;;;;;7.50;0.98;;;4.70;99.90;;;;;;4992288;28;20157;-75
2023/03/11 11:45:20;;;;;;;3.45;0.65;;;4.80;99.90;;;;;;5004435;28;20091;-75
2023/03/11 11:47:50;;;;;;;2.78;0.40;;;4.70;99.90;;;;;;4994910;28;20368;-75
2023/03/11 11:50:54;;;;;;;2.92;0.40;;;4.60;99.90;;;;;;5005570;28;20664;-74
2023/03/11 11:53:51;;;;;;;5.00;0.65;;;4.60;99.90;;;;;;4995466;28;20057;-75
2023/03/11 11:56:17;;;;;;;5.80;0.73;;;4.50;99.90;;;;;;5001610;28;20119;-74
2023/03/11 11:58:42;;;;;;;3.37;0.87;;;4.50;99.90;;;;;;4998872;28;20049;-75
2023/03/11 12:01:34;;;;;;;4.97;0.50;;;4.60;99.90;;;;;;4984495;28;20049;-74
2023/03/11 12:04:24;;;;;;;3.90;0.50;;;4.60;99.90;;;;;;4988431;28;20045;-69
2023/03/11 12:07:05;;;;;;;4.97;0.95;;;4.70;99.90;;;;;;4999138;28;20149;-75
2023/03/11 12:10:19;;;;;;;2.42;0.40;;;4.80;99.90;;;;;;5004972;28;20053;-75
2023/03/11 12:12:57;;;;;;;2.53;0.30;;;4.90;99.90;;;;;;4998197;28;20053;-75
2023/03/11 12:15:32;;;;;;;8.95;0.85;;;4.90;99.90;;;;;;5009055;28;20117;-74
2023/03/11 12:18:03;;;;;;;8.60;0.50;;;4.80;99.90;;;;;;4992526;28;20059;-75
2023/03/11 12:20:42;;;;;;;5.55;0.50;;;4.70;99.90;;;;;;4980750;28;20042;-73
2023/03/11 12:23:28;;;;;;;3.03;0.35;;;4.60;99.90;;;;;;5003023;28;20060;-75
2023/03/11 12:26:08;;;;;;;2.50;0.60;;;4.50;99.90;;;;;;4982107;28;20042;-74
2023/03/11 12:28:41;;;;;;;5.93;0.55;;;4.60;99.90;;;;;;4968292;28;20034;-74
2023/03/11 12:31:09;;;;;;;1.90;0.32;;;4.60;99.90;;;;;;4981718;28;20038;-74
2023/03/11 12:33:55;;;;;;;4.97;0.30;;;4.60;99.90;;;;;;4976632;28;20081;-74
2023/03/11 12:36:37;;;;;;;5.20;0.43;;;4.70;99.90;;;;;;4991530;28;20129;-73
2023/03/11 12:39:06;;;;;;;5.80;0.32;;;4.70;99.90;;;;;;4995544;28;20045;-73
2023/03/11 12:41:41;;;;;;;2.50;0.35;;;4.70;99.90;;;;;;4988767;28;20062;-73
2023/03/11 12:44:28;;;;;;;5.50;1.30;;;4.60;99.90;;;;;;5003257;28;20133;-73
2023/03/11 12:46:57;;;;;;;7.55;0.40;;;4.50;99.90;;;;;;4986750;28;20486;-73
2023/03/11 12:49:35;;;;;;;3.03;0.30;;;4.40;99.90;;;;;;4973281;28;20135;-73
2023/03/11 12:52:10;;;;;;;3.20;0.30;;;4.40;99.90;;;;;;5007779;28;20052;-73
2023/03/11 12:54:48;;;;;;;7.80;0.43;;;4.40;99.90;;;;;;4981437;28;20050;-73
2023/03/11 12:57:16;;;;;;;4.07;0.70;;;4.40;99.90;;;;;;4995265;28;20084;-73
2023/03/11 13:00:16;;;;;;;7.80;0.93;;;4.40;99.90;;;;;;5004233;28;20077;-73
2023/03/11 13:03:01;;;;;;;4.22;0.40;;;4.50;99.90;;;;;;4984758;28;20042;-73